createdAt,value
2023-05-10T00:01:07.265Z,60.43
2023-05-10T00:03:35.021Z,60.62
2023-05-10T00:06:02.752Z,60.87
2023-05-10T00:08:30.543Z,61.48
2023-05-10T00:10:58.502Z,61.70
2023-05-10T00:13:26.381Z,61.86
2023-05-10T00:15:54.233Z,62.47
2023-05-10T00:18:22.351Z,62.79
2023-05-10T00:20:50.205Z,63.20
2023-05-10T00:23:18.009Z,63.50
2023-05-10T00:25:45.764Z,63.80
2023-05-10T00:28:13.619Z,64.63
2023-05-10T00:30:41.257Z,64.29
2023-05-10T00:33:09.002Z,64.21
2023-05-10T00:35:36.982Z,64.59
2023-05-10T00:38:04.793Z,65.01
2023-05-10T00:40:32.598Z,65.30
2023-05-10T00:43:04.078Z,65.42
2023-05-10T00:45:34.122Z,65.56
2023-05-10T00:48:05.474Z,65.70
2023-05-10T00:50:33.907Z,65.85
2023-05-10T00:53:02.916Z,66.19
2023-05-10T00:55:31.444Z,66.47
2023-05-10T00:57:59.803Z,66.41
2023-05-10T01:00:27.658Z,66.71
2023-05-10T01:02:55.562Z,67.00
2023-05-10T01:05:23.872Z,66.90
2023-05-10T01:07:51.983Z,66.85
2023-05-10T01:10:19.804Z,66.86
2023-05-10T01:12:48.545Z,67.11
2023-05-10T01:15:19.039Z,67.41
2023-05-10T01:17:49.186Z,67.76
2023-05-10T01:20:17.307Z,68.38
2023-05-10T01:23:07.181Z,68.63
2023-05-10T01:25:56.123Z,68.68
2023-05-10T01:28:29.782Z,68.80
2023-05-10T01:31:32.937Z,69.26
2023-05-10T01:34:08.496Z,68.88
2023-05-10T01:36:49.520Z,69.06
2023-05-10T01:39:32.086Z,69.37
2023-05-10T01:42:11.127Z,69.41
2023-05-10T01:44:54.294Z,68.48
2023-05-10T01:47:47.910Z,68.67
2023-05-10T01:50:29.691Z,69.03
2023-05-10T01:53:00.128Z,68.82
2023-05-10T01:55:33.142Z,69.47
2023-05-10T01:58:11.153Z,69.81
2023-05-10T02:00:45.507Z,69.96
2023-05-10T02:03:15.907Z,70.00
2023-05-10T02:05:47.061Z,70.33
2023-05-10T02:08:16.785Z,70.46
2023-05-10T02:10:45.889Z,70.27
2023-05-10T02:13:15.188Z,69.64
2023-05-10T02:15:44.384Z,70.35
2023-05-10T02:18:14.629Z,70.75
2023-05-10T02:20:44.226Z,71.14
2023-05-10T02:23:12.496Z,71.33
2023-05-10T02:25:42.732Z,71.61
2023-05-10T02:28:13.084Z,71.68
2023-05-10T02:30:41.471Z,71.56
2023-05-10T02:33:09.734Z,71.79
2023-05-10T02:35:40.354Z,71.95
2023-05-10T02:38:12.744Z,72.14
2023-05-10T02:40:42.405Z,72.27
2023-05-10T02:43:13.153Z,72.31
2023-05-10T02:45:41.934Z,70.81
2023-05-10T02:48:11.237Z,71.26
2023-05-10T02:50:44.217Z,71.67
2023-05-10T02:53:20.247Z,72.06
2023-05-10T02:55:52.809Z,72.59
2023-05-10T02:58:20.674Z,72.91
2023-05-10T03:00:48.728Z,73.03
2023-05-10T03:03:16.411Z,73.16
2023-05-10T03:05:44.136Z,73.41
2023-05-10T03:08:12.163Z,73.30
2023-05-10T03:10:55.593Z,73.20
2023-05-10T03:13:36.903Z,73.42
2023-05-10T03:16:16.435Z,73.71
2023-05-10T03:19:11.182Z,74.06
2023-05-10T03:21:42.699Z,74.22
2023-05-10T03:24:13.440Z,73.41
2023-05-10T03:26:47.202Z,73.95
2023-05-10T03:29:18.444Z,74.05
2023-05-10T03:31:46.473Z,74.13
2023-05-10T03:34:15.481Z,74.57
2023-05-10T03:36:43.188Z,74.74
2023-05-10T03:39:11.486Z,74.28
2023-05-10T03:41:39.244Z,74.09
2023-05-10T03:44:06.976Z,73.96
2023-05-10T03:46:34.797Z,73.45
2023-05-10T03:49:04.153Z,72.63
2023-05-10T03:51:32.201Z,72.41
2023-05-10T03:54:00.241Z,72.45
2023-05-10T03:56:28.234Z,72.10
2023-05-10T03:58:56.056Z,71.37
2023-05-10T04:01:23.720Z,70.44
2023-05-10T04:03:51.473Z,70.48
2023-05-10T04:06:19.337Z,70.30
2023-05-10T04:08:47.087Z,70.07
2023-05-10T04:11:15.279Z,69.97
2023-05-10T04:13:44.004Z,69.85
2023-05-10T04:16:11.746Z,68.93
2023-05-10T04:18:40.632Z,68.69
2023-05-10T04:21:14.701Z,68.52
2023-05-10T04:23:42.498Z,68.45
2023-05-10T04:26:10.458Z,68.17
2023-05-10T04:28:38.857Z,68.09
2023-05-10T04:31:08.339Z,67.99
2023-05-10T04:33:37.442Z,67.70
2023-05-10T04:36:05.651Z,67.48
2023-05-10T04:38:33.391Z,67.25
2023-05-10T04:41:11.321Z,66.91
2023-05-10T04:43:39.505Z,66.78
2023-05-10T04:46:10.556Z,66.25
2023-05-10T04:48:38.252Z,65.75
2023-05-10T04:51:07.578Z,65.71
2023-05-10T04:53:35.261Z,65.27
2023-05-10T04:56:03.186Z,64.99
2023-05-10T04:58:31.026Z,64.75
2023-05-10T05:01:05.504Z,64.40
2023-05-10T05:03:33.831Z,64.26
2023-05-10T05:06:01.641Z,64.17
2023-05-10T05:08:29.327Z,63.92
2023-05-10T05:10:56.961Z,63.65
2023-05-10T05:13:24.864Z,63.12
2023-05-10T05:15:54.599Z,62.80
2023-05-10T05:18:22.325Z,62.35
2023-05-10T05:20:50.096Z,61.75
2023-05-10T05:23:17.924Z,61.20
2023-05-10T05:25:45.813Z,61.08
2023-05-10T05:28:13.440Z,60.68
2023-05-10T05:30:41.147Z,60.47
2023-05-10T05:33:08.838Z,60.09
2023-05-10T05:35:36.617Z,59.99
2023-05-10T05:38:04.497Z,59.55
2023-05-10T05:40:32.479Z,59.10
2023-05-10T05:43:00.275Z,58.47
2023-05-10T05:45:27.902Z,58.06
2023-05-10T05:47:55.786Z,57.53
2023-05-10T05:50:23.659Z,56.38
2023-05-10T05:52:52.140Z,55.47
2023-05-10T05:55:20.143Z,55.56
2023-05-10T05:57:47.799Z,54.88
2023-05-10T06:00:16.362Z,54.37
2023-05-10T06:02:44.173Z,54.05
2023-05-10T06:05:12.047Z,54.10
2023-05-10T06:07:42.816Z,53.76
2023-05-10T06:10:11.294Z,53.78
2023-05-10T06:12:38.969Z,53.68
2023-05-10T06:15:07.403Z,52.69
2023-05-10T06:17:35.095Z,52.08
2023-05-10T06:20:02.926Z,51.70
2023-05-10T06:22:30.617Z,51.40
2023-05-10T06:24:58.286Z,50.87
2023-05-10T06:27:25.904Z,51.46
2023-05-10T06:30:02.214Z,51.03
2023-05-10T06:32:37.144Z,49.72
2023-05-10T06:35:05.201Z,48.92
2023-05-10T06:37:32.906Z,47.88
2023-05-10T06:40:00.692Z,47.36
2023-05-10T06:42:28.445Z,45.88
2023-05-10T06:44:56.070Z,45.54
2023-05-10T06:47:24.395Z,45.13
2023-05-10T06:49:52.193Z,44.44
2023-05-10T06:52:19.892Z,43.79
2023-05-10T06:54:47.543Z,43.62
2023-05-10T06:57:27.638Z,42.64
2023-05-10T06:59:59.992Z,41.94
2023-05-10T07:02:27.790Z,41.07
2023-05-10T07:04:55.706Z,41.70
2023-05-10T07:07:23.555Z,42.01
2023-05-10T07:09:52.132Z,41.31
2023-05-10T07:12:20.862Z,40.90
2023-05-10T07:14:48.640Z,41.05
2023-05-10T07:17:16.583Z,40.17
2023-05-10T07:19:44.861Z,38.91
2023-05-10T07:22:12.544Z,39.15
2023-05-10T07:24:40.526Z,38.23
2023-05-10T07:27:08.198Z,37.90
2023-05-10T07:29:37.131Z,37.62
2023-05-10T07:32:04.992Z,36.87
2023-05-10T07:34:32.819Z,36.29
2023-05-10T07:37:00.614Z,35.99
2023-05-10T07:39:28.794Z,35.40
2023-05-10T07:41:56.990Z,35.99
2023-05-10T07:44:24.752Z,36.19
2023-05-10T07:46:53.150Z,35.34
2023-05-10T07:49:20.941Z,33.86
2023-05-10T07:51:48.845Z,33.60
2023-05-10T07:54:18.190Z,32.64
2023-05-10T07:56:48.014Z,31.71
2023-05-10T07:59:17.970Z,31.73
2023-05-10T08:01:46.233Z,30.82
2023-05-10T08:04:14.046Z,31.17
2023-05-10T08:06:41.954Z,31.25
2023-05-10T08:09:10.337Z,31.00
2023-05-10T08:11:38.096Z,31.36
2023-05-10T08:14:05.847Z,29.77
2023-05-10T08:16:33.618Z,30.72
2023-05-10T08:19:01.456Z,31.08
2023-05-10T08:21:29.558Z,30.74
2023-05-10T08:23:57.289Z,30.65
2023-05-10T08:26:25.313Z,29.92
2023-05-10T08:28:53.123Z,29.56
2023-05-10T08:31:20.881Z,29.79
2023-05-10T08:33:48.709Z,29.67
2023-05-10T08:36:20.660Z,29.74
2023-05-10T08:38:54.385Z,30.31
2023-05-10T08:41:24.774Z,29.98
2023-05-10T08:43:54.467Z,29.49
2023-05-10T08:46:23.671Z,29.20
2023-05-10T08:48:52.718Z,29.76
2023-05-10T08:51:24.697Z,30.14
2023-05-10T08:53:52.556Z,29.98
2023-05-10T08:56:21.740Z,30.00
2023-05-10T08:58:50.724Z,29.36
2023-05-10T09:01:20.357Z,29.86
2023-05-10T09:03:49.194Z,30.20
2023-05-10T09:06:17.211Z,29.87
2023-05-10T09:08:46.696Z,30.15
2023-05-10T09:11:15.286Z,30.12
2023-05-10T09:13:45.070Z,30.15
2023-05-10T09:16:21.226Z,30.50
2023-05-10T09:18:50.554Z,29.81
2023-05-10T09:21:19.418Z,29.55
2023-05-10T09:23:48.664Z,29.20
2023-05-10T09:26:17.249Z,28.41
2023-05-10T09:28:56.379Z,28.30
2023-05-10T09:31:25.959Z,28.53
2023-05-10T09:33:54.206Z,27.58
2023-05-10T09:36:21.862Z,27.21
2023-05-10T09:38:52.917Z,26.42
2023-05-10T09:41:22.680Z,27.40
2023-05-10T09:43:50.853Z,27.19
2023-05-10T09:46:18.728Z,26.61
2023-05-10T09:48:50.616Z,26.32
2023-05-10T09:51:25.783Z,25.70
2023-05-10T09:54:10.192Z,25.62
2023-05-10T09:56:41.096Z,24.29
2023-05-10T09:59:13.521Z,24.59
2023-05-10T10:01:42.085Z,24.75
2023-05-10T10:04:10.840Z,24.88
2023-05-10T10:06:42.284Z,25.28
2023-05-10T10:09:10.637Z,24.68
2023-05-10T10:11:39.998Z,24.56
2023-05-10T10:14:07.650Z,23.24
2023-05-10T10:16:35.965Z,23.64
2023-05-10T10:19:03.832Z,23.73
2023-05-10T10:21:32.545Z,23.72
2023-05-10T10:24:00.372Z,23.94
2023-05-10T10:26:28.472Z,24.40
2023-05-10T10:29:40.384Z,24.42
2023-05-10T10:32:27.549Z,23.46
2023-05-10T10:34:57.148Z,23.37
2023-05-10T10:37:35.411Z,23.50
2023-05-10T10:40:33.622Z,23.51
2023-05-10T10:43:31.273Z,23.83
2023-05-10T10:46:18.806Z,23.92
2023-05-10T10:48:53.224Z,23.55
2023-05-10T10:51:21.112Z,23.20
2023-05-10T10:53:49.415Z,23.78
2023-05-10T10:56:24.567Z,23.77
2023-05-10T10:58:54.149Z,23.72
2023-05-10T11:01:22.215Z,23.07
2023-05-10T11:04:18.581Z,21.90
2023-05-10T11:06:46.317Z,22.00
2023-05-10T11:09:14.347Z,21.87
2023-05-10T11:11:59.650Z,22.59
2023-05-10T11:14:27.528Z,22.90
2023-05-10T11:16:55.493Z,22.16
2023-05-10T11:19:28.756Z,22.65
2023-05-10T11:22:05.447Z,22.22
2023-05-10T11:24:34.378Z,22.61
2023-05-10T11:27:02.208Z,22.82
2023-05-10T11:29:30.013Z,22.97
2023-05-10T11:31:59.655Z,22.96
2023-05-10T11:34:34.300Z,23.02
2023-05-10T11:37:02.345Z,23.40
2023-05-10T11:39:32.753Z,23.39
2023-05-10T11:42:01.175Z,23.51
2023-05-10T11:44:32.899Z,23.18
2023-05-10T11:47:02.572Z,23.36
2023-05-10T11:49:31.198Z,23.70
2023-05-10T11:52:08.939Z,23.59
2023-05-10T11:54:36.821Z,23.52
2023-05-10T11:57:05.064Z,23.03
2023-05-10T11:59:32.806Z,23.07
2023-05-10T12:02:00.808Z,23.47
2023-05-10T12:04:30.547Z,23.69
2023-05-10T12:06:58.946Z,23.26
2023-05-10T12:09:39.538Z,23.41
2023-05-10T12:12:11.752Z,23.50
2023-05-10T12:14:39.515Z,23.68
2023-05-10T12:17:07.278Z,23.78
2023-05-10T12:19:42.178Z,24.06
2023-05-10T12:22:09.818Z,23.81
2023-05-10T12:24:39.349Z,23.81
2023-05-10T12:27:09.441Z,24.21
2023-05-10T12:29:37.543Z,24.14
2023-05-10T12:32:05.301Z,23.84
2023-05-10T12:34:35.282Z,24.01
2023-05-10T12:37:04.451Z,24.60
2023-05-10T12:39:42.354Z,24.45
2023-05-10T12:42:11.117Z,24.44
2023-05-10T12:44:39.556Z,24.71
2023-05-10T12:47:07.285Z,24.73
2023-05-10T12:49:35.246Z,24.49
2023-05-10T12:52:03.611Z,24.27
2023-05-10T12:54:31.417Z,23.97
2023-05-10T12:56:59.141Z,24.18
2023-05-10T12:59:26.827Z,24.78
2023-05-10T13:01:54.546Z,24.89
2023-05-10T13:04:23.891Z,25.03
2023-05-10T13:06:51.910Z,25.18
2023-05-10T13:09:19.930Z,25.46
2023-05-10T13:11:49.033Z,25.63
2023-05-10T13:14:16.678Z,25.34
2023-05-10T13:16:44.313Z,25.28
2023-05-10T13:19:12.513Z,25.02
2023-05-10T13:21:43.730Z,24.81
2023-05-10T13:24:14.646Z,25.22
2023-05-10T13:26:42.355Z,25.25
2023-05-10T13:29:10.386Z,25.52
2023-05-10T13:31:38.137Z,25.59
2023-05-10T13:34:07.190Z,25.42
2023-05-10T13:36:34.958Z,25.23
2023-05-10T13:39:04.485Z,25.63
2023-05-10T13:41:32.435Z,25.62
2023-05-10T13:44:00.074Z,25.94
2023-05-10T13:46:27.822Z,25.89
2023-05-10T13:48:55.578Z,25.78
2023-05-10T13:51:23.940Z,25.69
2023-05-10T13:53:51.669Z,25.82
2023-05-10T13:56:19.351Z,25.83
2023-05-10T13:58:47.418Z,25.94
2023-05-10T14:01:15.486Z,25.67
2023-05-10T14:03:43.374Z,26.27
2023-05-10T14:06:11.396Z,26.21
2023-05-10T14:08:39.022Z,25.65
2023-05-10T14:11:06.732Z,25.83
2023-05-10T14:13:34.657Z,26.03
2023-05-10T14:16:02.642Z,26.15
2023-05-10T14:18:30.427Z,26.29
2023-05-10T14:20:58.471Z,26.39
2023-05-10T14:23:26.745Z,26.50
2023-05-10T14:25:54.669Z,26.68
2023-05-10T14:28:23.663Z,26.60
2023-05-10T14:30:51.695Z,26.58
2023-05-10T14:33:19.409Z,26.45
2023-05-10T14:35:48.424Z,26.73
2023-05-10T14:38:16.132Z,26.86
2023-05-10T14:40:44.221Z,26.83
2023-05-10T14:43:11.973Z,27.02
2023-05-10T14:45:39.653Z,27.19
2023-05-10T14:48:07.794Z,27.15
2023-05-10T14:50:37.299Z,27.12
2023-05-10T14:53:05.758Z,27.01
2023-05-10T14:55:33.848Z,27.09
2023-05-10T14:58:03.812Z,27.25
2023-05-10T15:00:32.014Z,27.51
2023-05-10T15:03:00.262Z,27.44
2023-05-10T15:05:28.280Z,27.38
2023-05-10T15:07:56.883Z,27.51
2023-05-10T15:10:24.632Z,27.70
2023-05-10T15:12:52.454Z,27.67
2023-05-10T15:15:20.301Z,27.72
2023-05-10T15:17:49.189Z,27.55
2023-05-10T15:20:17.080Z,27.35
2023-05-10T15:22:44.839Z,26.90
2023-05-10T15:25:12.561Z,26.71
2023-05-10T15:27:40.447Z,26.83
2023-05-10T15:30:09.376Z,26.92
2023-05-10T15:32:38.052Z,27.09
2023-05-10T15:35:06.327Z,27.15
2023-05-10T15:37:34.020Z,27.26
2023-05-10T15:40:04.965Z,27.16
2023-05-10T15:42:33.496Z,26.94
2023-05-10T15:45:01.184Z,27.22
2023-05-10T15:47:30.825Z,27.28
2023-05-10T15:49:58.616Z,27.39
2023-05-10T15:52:26.380Z,27.73
2023-05-10T15:54:54.064Z,27.69
2023-05-10T15:57:21.778Z,27.89
2023-05-10T15:59:49.631Z,27.88
2023-05-10T16:02:19.330Z,27.95
2023-05-10T16:04:47.261Z,28.07
2023-05-10T16:07:14.956Z,28.24
2023-05-10T16:09:42.731Z,28.33
2023-05-10T16:12:10.847Z,28.21
2023-05-10T16:14:38.569Z,28.40
2023-05-10T16:17:06.444Z,28.66
2023-05-10T16:19:34.340Z,28.74
2023-05-10T16:22:02.294Z,29.00
2023-05-10T16:24:30.331Z,29.01
2023-05-10T16:26:58.249Z,28.99
2023-05-10T16:29:26.232Z,28.92
2023-05-10T16:31:54.136Z,28.98
2023-05-10T16:34:24.276Z,28.98
2023-05-10T16:36:52.012Z,29.19
2023-05-10T16:39:19.712Z,29.31
2023-05-10T16:41:47.420Z,29.41
2023-05-10T16:44:15.157Z,29.68
2023-05-10T16:46:43.788Z,29.67
2023-05-10T16:49:12.374Z,29.66
2023-05-10T16:51:40.951Z,29.76
2023-05-10T16:54:08.691Z,29.68
2023-05-10T16:56:36.319Z,29.66
2023-05-10T16:59:03.941Z,29.76
2023-05-10T17:01:31.785Z,29.95
2023-05-10T17:03:59.564Z,30.23
2023-05-10T17:06:27.360Z,30.18
2023-05-10T17:08:55.017Z,30.01
2023-05-10T17:11:22.704Z,30.05
2023-05-10T17:13:52.423Z,30.15
2023-05-10T17:16:21.506Z,30.43
2023-05-10T17:18:49.467Z,30.43
2023-05-10T17:21:17.216Z,30.46
2023-05-10T17:23:44.954Z,30.46
2023-05-10T17:26:12.876Z,30.59
2023-05-10T17:28:40.628Z,30.68
2023-05-10T17:31:08.669Z,30.78
2023-05-10T17:33:36.318Z,30.86
2023-05-10T17:36:04.158Z,30.86
2023-05-10T17:38:32.111Z,31.00
2023-05-10T17:40:59.740Z,31.00
2023-05-10T17:43:27.440Z,31.08
2023-05-10T17:45:55.162Z,31.21
2023-05-10T17:48:23.252Z,31.17
2023-05-10T17:50:51.570Z,31.31
2023-05-10T17:53:19.520Z,31.38
2023-05-10T17:55:49.650Z,31.51
2023-05-10T17:58:17.433Z,31.55
2023-05-10T18:00:45.212Z,31.63
2023-05-10T18:03:13.000Z,31.88
2023-05-10T18:05:41.001Z,32.01
2023-05-10T18:08:08.806Z,32.13
2023-05-10T18:10:39.296Z,32.25
2023-05-10T18:13:09.007Z,32.31
2023-05-10T18:15:37.509Z,32.59
2023-05-10T18:18:05.252Z,32.81
2023-05-10T18:20:33.079Z,32.89
2023-05-10T18:23:00.739Z,33.05
2023-05-10T18:25:28.625Z,33.26
2023-05-10T18:27:56.386Z,33.48
2023-05-10T18:30:24.127Z,33.73
2023-05-10T18:32:52.015Z,33.72
2023-05-10T18:35:20.024Z,34.22
2023-05-10T18:37:48.701Z,34.48
2023-05-10T18:40:17.463Z,34.80
2023-05-10T18:42:46.656Z,35.04
2023-05-10T18:45:14.667Z,34.87
2023-05-10T18:47:43.025Z,35.28
2023-05-10T18:50:11.110Z,35.37
2023-05-10T18:52:38.857Z,35.39
2023-05-10T18:55:07.181Z,35.90
2023-05-10T18:57:41.039Z,36.05
2023-05-10T19:00:10.504Z,36.38
2023-05-10T19:02:39.774Z,36.85
2023-05-10T19:05:07.741Z,36.82
2023-05-10T19:07:35.565Z,36.46
2023-05-10T19:10:03.399Z,36.48
2023-05-10T19:12:31.204Z,37.16
2023-05-10T19:14:58.979Z,37.37
2023-05-10T19:17:26.775Z,37.76
2023-05-10T19:19:57.025Z,38.30
2023-05-10T19:22:35.393Z,38.81
2023-05-10T19:25:13.303Z,38.78
2023-05-10T19:27:41.246Z,38.63
2023-05-10T19:30:09.567Z,39.17
2023-05-10T19:32:37.335Z,39.46
2023-05-10T19:35:05.713Z,39.54
2023-05-10T19:37:33.474Z,39.85
2023-05-10T19:40:01.493Z,39.98
2023-05-10T19:42:29.165Z,39.60
2023-05-10T19:44:59.260Z,39.95
2023-05-10T19:47:26.925Z,39.93
2023-05-10T19:49:54.616Z,40.02
2023-05-10T19:52:22.792Z,40.38
2023-05-10T19:54:50.472Z,40.04
2023-05-10T19:57:18.237Z,40.13
2023-05-10T19:59:45.986Z,40.23
2023-05-10T20:02:13.969Z,40.63
2023-05-10T20:04:41.714Z,40.59
2023-05-10T20:07:09.464Z,40.76
2023-05-10T20:09:37.102Z,40.71
2023-05-10T20:12:04.830Z,40.71
2023-05-10T20:14:32.544Z,40.86
2023-05-10T20:17:00.398Z,40.91
2023-05-10T20:19:28.058Z,40.94
2023-05-10T20:21:58.843Z,41.10
2023-05-10T20:24:26.653Z,41.07
2023-05-10T20:26:54.693Z,40.97
2023-05-10T20:29:22.437Z,41.05
2023-05-10T20:31:50.180Z,41.19
2023-05-10T20:34:18.088Z,41.19
2023-05-10T20:36:45.814Z,41.00
2023-05-10T20:39:14.248Z,41.01
2023-05-10T20:41:42.205Z,41.25
2023-05-10T20:44:09.924Z,41.36
2023-05-10T20:46:37.846Z,41.46
2023-05-10T20:49:05.608Z,41.36
2023-05-10T20:51:33.441Z,41.45
2023-05-10T20:54:04.471Z,41.51
2023-05-10T20:56:32.132Z,41.44
2023-05-10T20:58:59.834Z,41.50
2023-05-10T21:01:27.596Z,41.70
2023-05-10T21:03:55.351Z,41.48
2023-05-10T21:06:23.036Z,41.56
2023-05-10T21:08:50.652Z,41.93
2023-05-10T21:11:18.268Z,41.80
2023-05-10T21:13:45.921Z,41.97
2023-05-10T21:16:13.800Z,41.90
2023-05-10T21:18:41.538Z,41.95
2023-05-10T21:21:09.607Z,42.24
2023-05-10T21:23:37.443Z,42.19
2023-05-10T21:26:05.222Z,42.16
2023-05-10T21:28:32.876Z,42.22
2023-05-10T21:31:00.509Z,42.25
2023-05-10T21:33:28.330Z,42.28
2023-05-10T21:35:56.817Z,42.53
2023-05-10T21:38:24.715Z,42.51
2023-05-10T21:40:52.356Z,42.57
2023-05-10T21:43:20.610Z,42.67
2023-05-10T21:45:48.253Z,42.71
2023-05-10T21:48:15.936Z,42.82
2023-05-10T21:50:43.827Z,42.91
2023-05-10T21:53:11.836Z,42.97
2023-05-10T21:55:39.521Z,42.97
2023-05-10T21:58:07.340Z,43.14
2023-05-10T22:00:35.594Z,43.07
2023-05-10T22:03:03.425Z,43.14
2023-05-10T22:05:31.283Z,43.29
2023-05-10T22:07:59.189Z,43.45
2023-05-10T22:10:26.816Z,43.35
2023-05-10T22:12:54.507Z,43.78
2023-05-10T22:15:22.233Z,43.67
2023-05-10T22:17:50.490Z,43.91
2023-05-10T22:20:18.585Z,43.78
2023-05-10T22:22:46.583Z,44.00
2023-05-10T22:25:14.582Z,43.83
2023-05-10T22:27:42.385Z,43.91
2023-05-10T22:30:10.767Z,44.07
2023-05-10T22:32:38.510Z,44.42
2023-05-10T22:35:07.098Z,44.57
2023-05-10T22:37:34.720Z,44.59
2023-05-10T22:40:02.467Z,44.62
2023-05-10T22:42:30.155Z,44.49
2023-05-10T22:44:58.741Z,44.52
2023-05-10T22:47:26.476Z,44.66
2023-05-10T22:49:55.296Z,44.90
2023-05-10T22:52:22.886Z,44.78
2023-05-10T22:54:50.834Z,44.80
2023-05-10T22:57:18.704Z,45.19
2023-05-10T22:59:48.113Z,45.04
2023-05-10T23:02:16.280Z,45.10
2023-05-10T23:04:44.180Z,45.05
2023-05-10T23:07:12.182Z,45.04
2023-05-10T23:09:39.923Z,45.41
2023-05-10T23:12:07.738Z,45.32
2023-05-10T23:14:35.529Z,45.74
2023-05-10T23:17:03.269Z,45.54
2023-05-10T23:19:31.019Z,45.51
2023-05-10T23:21:59.513Z,45.59
2023-05-10T23:24:27.178Z,46.09
2023-05-10T23:26:54.899Z,45.99
2023-05-10T23:29:23.943Z,46.28
2023-05-10T23:31:51.850Z,46.31
2023-05-10T23:34:19.610Z,46.30
2023-05-10T23:36:47.354Z,46.26
2023-05-10T23:39:15.436Z,46.57
2023-05-10T23:41:43.145Z,46.72
2023-05-10T23:44:10.789Z,46.56
2023-05-10T23:46:38.417Z,46.95
2023-05-10T23:49:06.224Z,46.98
2023-05-10T23:51:34.002Z,46.77
2023-05-10T23:54:02.106Z,47.18
2023-05-10T23:56:29.764Z,47.40
2023-05-10T23:58:57.630Z,47.84
